createdAt,value
2022-10-03T00:01:38.307Z,99777.88
2022-10-03T00:04:07.622Z,99776.06
2022-10-03T00:06:34.026Z,99776.91
2022-10-03T00:09:00.400Z,99783.84
2022-10-03T00:11:45.644Z,99786.13
2022-10-03T00:14:22.569Z,99791.91
2022-10-03T00:16:53.908Z,99789.88
2022-10-03T00:19:23.311Z,99796.00
2022-10-03T00:21:49.651Z,99796.66
2022-10-03T00:24:25.713Z,99787.72
2022-10-03T00:27:03.450Z,99800.78
2022-10-03T00:29:39.082Z,99796.66
2022-10-03T00:32:28.632Z,99802.31
2022-10-03T00:35:20.125Z,99816.38
2022-10-03T00:38:05.367Z,99827.81
2022-10-03T00:40:50.529Z,99831.47
2022-10-03T00:43:26.566Z,99832.47
2022-10-03T00:46:02.253Z,99830.19
2022-10-03T00:48:41.035Z,99833.66
2022-10-03T00:51:26.417Z,99827.88
2022-10-03T00:54:02.146Z,99827.75
2022-10-03T00:56:31.797Z,99843.66
2022-10-03T00:59:07.095Z,99840.53
2022-10-03T01:01:37.196Z,99842.84
2022-10-03T01:04:27.052Z,99844.38
2022-10-03T01:07:05.593Z,99851.69
2022-10-03T01:09:55.321Z,99850.19
2022-10-03T01:12:28.559Z,99844.94
2022-10-03T01:14:54.876Z,99845.63
2022-10-03T01:17:31.612Z,99850.28
2022-10-03T01:20:04.583Z,99847.63
2022-10-03T01:22:33.953Z,99855.09
2022-10-03T01:25:26.763Z,99856.63
2022-10-03T01:28:22.437Z,99857.81
2022-10-03T01:30:51.838Z,99850.06
2022-10-03T01:33:23.994Z,99851.41
2022-10-03T01:36:29.377Z,99859.50
2022-10-03T01:39:16.011Z,99851.22
2022-10-03T01:41:48.409Z,99861.00
2022-10-03T01:44:33.218Z,99850.59
2022-10-03T01:47:18.495Z,99848.41
2022-10-03T01:49:54.077Z,99846.13
2022-10-03T01:52:29.616Z,99853.41
2022-10-03T01:55:03.184Z,99856.03
2022-10-03T01:57:35.381Z,99849.75
2022-10-03T02:00:10.661Z,99855.88
2022-10-03T02:02:45.254Z,99851.94
2022-10-03T02:05:17.174Z,99845.63
2022-10-03T02:07:49.793Z,99861.19
2022-10-03T02:10:33.091Z,99856.34
2022-10-03T02:13:11.743Z,99854.19
2022-10-03T02:15:41.128Z,99849.38
2022-10-03T02:18:13.032Z,99846.72
2022-10-03T02:20:39.389Z,99849.38
2022-10-03T02:23:22.609Z,99848.38
2022-10-03T02:25:49.255Z,99843.06
2022-10-03T02:28:21.768Z,99843.78
2022-10-03T02:31:00.304Z,99839.66
2022-10-03T02:33:37.104Z,99841.47
2022-10-03T02:36:23.887Z,99838.19
2022-10-03T02:38:59.919Z,99838.34
2022-10-03T02:41:32.623Z,99829.09
2022-10-03T02:44:14.192Z,99830.28
2022-10-03T02:46:43.654Z,99823.81
2022-10-03T02:49:10.131Z,99826.34
2022-10-03T02:51:36.909Z,99829.97
2022-10-03T02:54:15.724Z,99821.91
2022-10-03T02:57:00.969Z,99821.22
2022-10-03T02:59:27.430Z,99819.91
2022-10-03T03:02:12.789Z,99820.91
2022-10-03T03:04:56.777Z,99826.22
2022-10-03T03:07:41.703Z,99833.50
2022-10-03T03:10:28.196Z,99840.75
2022-10-03T03:12:57.528Z,99840.59
2022-10-03T03:15:43.868Z,99843.09
2022-10-03T03:18:28.865Z,99850.69
2022-10-03T03:21:13.686Z,99859.44
2022-10-03T03:23:54.531Z,99859.25
2022-10-03T03:26:39.857Z,99857.44
2022-10-03T03:29:10.587Z,99868.69
2022-10-03T03:32:03.376Z,99867.88
2022-10-03T03:34:29.892Z,99872.31
2022-10-03T03:37:02.231Z,99874.13
2022-10-03T03:39:34.605Z,99878.94
2022-10-03T03:42:00.978Z,99872.00
2022-10-03T03:44:27.280Z,99873.00
2022-10-03T03:46:56.685Z,99875.34
2022-10-03T03:49:42.413Z,99874.97
2022-10-03T03:52:17.966Z,99877.81
2022-10-03T03:54:50.687Z,99884.41
2022-10-03T03:57:37.388Z,99884.22
2022-10-03T04:13:29.009Z,99873.63
2022-10-03T04:16:14.236Z,99892.84
2022-10-03T04:18:58.965Z,99888.53
2022-10-03T04:21:44.042Z,99880.25
2022-10-03T04:24:27.589Z,99879.44
2022-10-03T04:27:12.810Z,99880.44
2022-10-03T04:29:43.847Z,99878.94
2022-10-03T04:32:16.523Z,99882.59
2022-10-03T04:34:53.958Z,99884.75
2022-10-03T04:37:25.541Z,99882.09
2022-10-03T04:40:01.634Z,99877.63
2022-10-03T04:42:28.184Z,99877.31
2022-10-03T04:45:06.892Z,99883.59
2022-10-03T04:47:39.458Z,99887.88
2022-10-03T04:50:11.884Z,99887.75
2022-10-03T04:52:42.217Z,99891.22
2022-10-03T04:55:27.641Z,99903.13
2022-10-03T04:58:00.447Z,99901.94
2022-10-03T05:00:52.900Z,99907.41
2022-10-03T05:03:21.752Z,99907.09
2022-10-03T05:06:00.435Z,99902.44
2022-10-03T05:08:41.015Z,99904.75
2022-10-03T05:11:08.059Z,99915.66
2022-10-03T05:14:06.871Z,99913.00
2022-10-03T05:16:38.987Z,99910.69
2022-10-03T05:19:16.574Z,99908.41
2022-10-03T05:21:56.007Z,99911.69
2022-10-03T05:24:45.247Z,99909.72
2022-10-03T05:27:14.602Z,99909.03
2022-10-03T05:29:51.655Z,99916.81
2022-10-03T05:32:47.501Z,99918.47
2022-10-03T05:35:20.006Z,99928.72
2022-10-03T05:38:01.763Z,99929.13
2022-10-03T05:40:29.972Z,99933.44
2022-10-03T05:43:05.257Z,99936.72
2022-10-03T05:45:46.982Z,99944.13
2022-10-03T05:48:28.808Z,99943.97
2022-10-03T05:51:01.273Z,99946.44
2022-10-03T05:53:46.537Z,99952.25
2022-10-03T05:56:32.076Z,99966.09
2022-10-03T05:59:22.843Z,99974.53
2022-10-03T06:02:08.095Z,99971.88
2022-10-03T06:04:42.065Z,99979.13
2022-10-03T06:07:21.703Z,99976.63
2022-10-03T06:09:50.852Z,99985.41
2022-10-03T06:12:23.829Z,99990.34
2022-10-03T06:15:09.008Z,99989.72
2022-10-03T06:17:47.650Z,99990.75
2022-10-03T06:20:37.013Z,99991.09
2022-10-03T06:23:05.923Z,99989.09
2022-10-03T06:25:41.791Z,99995.19
2022-10-03T06:28:27.162Z,99987.13
2022-10-03T06:31:23.032Z,99989.31
2022-10-03T06:34:04.742Z,99992.16
2022-10-03T06:36:37.005Z,100000.06
2022-10-03T06:39:21.702Z,99990.47
2022-10-03T06:42:08.262Z,100005.38
2022-10-03T06:44:46.959Z,100004.53
2022-10-03T06:47:32.359Z,99997.78
2022-10-03T06:49:58.727Z,100002.75
2022-10-03T06:52:34.281Z,99993.66
2022-10-03T06:55:19.383Z,99995.97
2022-10-03T06:58:04.661Z,99992.34
2022-10-03T07:00:33.921Z,99994.47
2022-10-03T07:03:20.210Z,99996.31
2022-10-03T07:06:06.891Z,99993.19
2022-10-03T07:08:53.247Z,100000.63
2022-10-03T07:11:36.278Z,99997.66
2022-10-03T07:14:14.688Z,99993.03
2022-10-03T07:16:46.969Z,100002.78
2022-10-03T07:19:20.283Z,100003.44
2022-10-03T07:22:05.505Z,100006.75
2022-10-03T07:24:49.653Z,100005.25
2022-10-03T07:27:23.319Z,100004.41
2022-10-03T07:30:04.825Z,100009.84
2022-10-03T07:32:37.254Z,100007.53
2022-10-03T07:35:24.502Z,100005.38
2022-10-03T07:38:29.434Z,100001.22
2022-10-03T07:41:14.325Z,100009.47
2022-10-03T07:43:55.012Z,100011.47
2022-10-03T07:46:24.805Z,100016.38
2022-10-03T07:49:10.990Z,100015.25
2022-10-03T07:51:41.279Z,100020.50
2022-10-03T07:54:16.967Z,100018.19
2022-10-03T07:57:06.651Z,100020.00
2022-10-03T07:59:40.352Z,100029.41
2022-10-03T08:02:24.702Z,100027.72
2022-10-03T08:05:15.539Z,100026.84
2022-10-03T08:07:45.164Z,100029.63
2022-10-03T08:10:17.498Z,100028.63
2022-10-03T08:12:52.844Z,100025.44
2022-10-03T08:15:21.468Z,100019.81
2022-10-03T08:17:59.495Z,100030.06
2022-10-03T08:20:38.211Z,100034.84
2022-10-03T08:23:10.622Z,100031.88
2022-10-03T08:25:40.023Z,100027.69
2022-10-03T08:28:06.461Z,100027.63
2022-10-03T08:30:48.079Z,100025.22
2022-10-03T08:33:17.288Z,100027.31
2022-10-03T08:35:43.626Z,100030.19
2022-10-03T08:38:10.041Z,100033.47
2022-10-03T08:40:39.468Z,100030.34
2022-10-03T08:43:18.105Z,100037.19
2022-10-03T08:45:51.740Z,100037.97
2022-10-03T08:48:26.928Z,100035.72
2022-10-03T08:50:59.349Z,100033.81
2022-10-03T08:53:44.274Z,100035.06
2022-10-03T08:56:15.208Z,100028.03
2022-10-03T08:59:00.383Z,100032.44
2022-10-03T09:01:29.958Z,100032.53
2022-10-03T09:04:11.986Z,100032.28
2022-10-03T09:07:05.112Z,100028.78
2022-10-03T09:09:45.596Z,100031.19
2022-10-03T09:12:15.078Z,100031.66
2022-10-03T09:14:44.499Z,100033.34
2022-10-03T09:17:10.867Z,100028.50
2022-10-03T09:19:37.230Z,100034.09
2022-10-03T09:22:23.650Z,100025.38
2022-10-03T09:25:08.608Z,100033.00
2022-10-03T09:27:46.430Z,100030.84
2022-10-03T09:30:12.827Z,100036.25
2022-10-03T09:32:57.744Z,100036.97
2022-10-03T09:35:38.780Z,100042.75
2022-10-03T09:38:07.867Z,100034.56
2022-10-03T09:40:53.330Z,100038.16
2022-10-03T09:43:38.244Z,100048.78
2022-10-03T09:46:21.196Z,100040.84
2022-10-03T09:49:06.345Z,100042.88
2022-10-03T09:51:48.893Z,100035.09
2022-10-03T09:54:44.117Z,100029.00
2022-10-03T09:57:31.999Z,100034.00
2022-10-03T09:59:58.474Z,100025.94
2022-10-03T10:02:44.627Z,100032.09
2022-10-03T10:05:33.797Z,100020.25
2022-10-03T10:08:00.172Z,100018.22
2022-10-03T10:10:45.310Z,100023.91
2022-10-03T10:13:44.217Z,100016.25
2022-10-03T10:16:28.684Z,100018.22
2022-10-03T10:18:57.957Z,100017.97
2022-10-03T10:21:24.475Z,100011.88
2022-10-03T10:24:00.006Z,100012.78
2022-10-03T10:26:45.855Z,100013.91
2022-10-03T10:29:31.602Z,100015.03
2022-10-03T10:32:01.420Z,100019.19
2022-10-03T10:34:49.740Z,100014.94
2022-10-03T10:37:25.391Z,100004.28
2022-10-03T10:39:53.150Z,100022.09
2022-10-03T10:42:36.223Z,100019.44
2022-10-03T10:45:15.017Z,100017.22
2022-10-03T10:48:02.231Z,100011.94
2022-10-03T10:50:28.805Z,100009.72
2022-10-03T10:53:14.108Z,100008.84
2022-10-03T10:56:13.852Z,100007.28
2022-10-03T10:58:58.926Z,100007.72
2022-10-03T11:01:46.125Z,100000.16
2022-10-03T11:04:32.936Z,100003.88
2022-10-03T11:07:08.554Z,100005.97
2022-10-03T11:09:55.948Z,99997.41
2022-10-03T11:12:38.068Z,99989.59
2022-10-03T11:15:10.847Z,99980.56
2022-10-03T11:17:53.746Z,99981.84
2022-10-03T11:20:38.962Z,99986.78
2022-10-03T11:23:08.125Z,99982.72
2022-10-03T11:25:53.923Z,99976.63
2022-10-03T11:28:23.052Z,99971.09
2022-10-03T11:31:13.908Z,99973.97
2022-10-03T11:33:41.101Z,99967.78
2022-10-03T11:36:27.218Z,99979.91
2022-10-03T11:39:16.740Z,99969.00
2022-10-03T11:41:58.271Z,99964.03
2022-10-03T11:44:28.063Z,99957.66
2022-10-03T11:47:02.133Z,99952.66
2022-10-03T11:49:40.863Z,99947.47
2022-10-03T11:52:27.700Z,99937.19
2022-10-03T11:55:05.642Z,99939.44
2022-10-03T11:57:34.923Z,99933.31
2022-10-03T12:00:04.845Z,99934.63
2022-10-03T12:02:47.017Z,99933.97
2022-10-03T12:05:27.839Z,99928.13
2022-10-03T12:08:13.173Z,99927.41
2022-10-03T12:10:39.584Z,99932.13
2022-10-03T12:13:14.994Z,99928.03
2022-10-03T12:15:41.703Z,99929.88
2022-10-03T12:18:16.720Z,99915.13
2022-10-03T12:20:49.447Z,99923.97
2022-10-03T12:23:34.692Z,99914.28
2022-10-03T12:26:03.204Z,99916.91
2022-10-03T12:28:36.814Z,99909.19
2022-10-03T12:31:04.212Z,99905.78
2022-10-03T12:33:39.293Z,99906.34
2022-10-03T12:36:08.805Z,99912.97
2022-10-03T12:38:41.495Z,99901.94
2022-10-03T12:41:22.090Z,99903.81
2022-10-03T12:44:05.010Z,99893.66
2022-10-03T12:46:37.637Z,99899.47
2022-10-03T12:49:08.076Z,99898.63
2022-10-03T12:51:43.489Z,99898.50
2022-10-03T12:54:26.759Z,99891.28
2022-10-03T12:57:25.684Z,99899.63
2022-10-03T13:00:01.268Z,99890.03
2022-10-03T13:02:30.691Z,99891.97
2022-10-03T13:05:23.559Z,99897.59
2022-10-03T13:07:56.587Z,99878.75
2022-10-03T13:10:42.509Z,99880.66
2022-10-03T13:13:27.795Z,99879.47
2022-10-03T13:16:08.788Z,99887.78
2022-10-03T13:18:41.249Z,99885.56
2022-10-03T13:21:33.378Z,99880.25
2022-10-03T13:23:59.888Z,99883.53
2022-10-03T13:26:29.016Z,99883.59
2022-10-03T13:29:12.628Z,99889.75
2022-10-03T13:31:57.758Z,99885.03
2022-10-03T13:34:27.177Z,99879.06
2022-10-03T13:36:56.919Z,99890.19
2022-10-03T13:39:27.317Z,99877.50
2022-10-03T13:41:55.475Z,99884.72
2022-10-03T13:44:23.737Z,99882.47
2022-10-03T13:47:03.601Z,99884.31
2022-10-03T13:49:32.492Z,99875.22
2022-10-03T13:52:11.465Z,99880.28
2022-10-03T13:54:43.808Z,99873.88
2022-10-03T13:57:23.826Z,99874.59
2022-10-03T14:00:04.515Z,99868.91
2022-10-03T14:02:50.593Z,99878.44
2022-10-03T14:05:17.078Z,99872.97
2022-10-03T14:08:02.914Z,99871.78
2022-10-03T14:10:55.706Z,99871.56
2022-10-03T14:13:22.096Z,99861.88
2022-10-03T14:15:52.019Z,99862.66
2022-10-03T14:18:25.996Z,99859.44
2022-10-03T14:21:01.496Z,99867.06
2022-10-03T14:23:42.158Z,99863.00
2022-10-03T14:26:22.748Z,99861.53
2022-10-03T14:29:01.608Z,99855.69
2022-10-03T14:31:46.251Z,99859.13
2022-10-03T14:34:21.648Z,99869.72
2022-10-03T14:36:57.151Z,99866.53
2022-10-03T14:39:38.273Z,99857.56
2022-10-03T14:42:23.462Z,99857.53
2022-10-03T14:44:55.464Z,99852.88
2022-10-03T14:47:23.867Z,99852.72
2022-10-03T14:49:59.101Z,99858.72
2022-10-03T14:52:32.141Z,99850.81
2022-10-03T14:55:02.953Z,99854.38
2022-10-03T14:57:47.572Z,99852.84
2022-10-03T15:00:39.041Z,99850.69
2022-10-03T15:03:17.813Z,99855.56
2022-10-03T15:05:56.665Z,99850.84
2022-10-03T15:08:24.201Z,99846.56
2022-10-03T15:10:53.416Z,99845.34
2022-10-03T15:13:20.516Z,99846.22
2022-10-03T15:15:48.128Z,99844.84
2022-10-03T15:18:16.843Z,99842.22
2022-10-03T15:20:44.665Z,99843.88
2022-10-03T15:23:27.370Z,99834.63
2022-10-03T15:25:54.257Z,99835.00
2022-10-03T15:28:23.052Z,99824.44
2022-10-03T15:30:51.536Z,99832.00
2022-10-03T15:33:21.524Z,99831.91
2022-10-03T15:35:50.721Z,99822.56
2022-10-03T15:38:23.453Z,99826.00
2022-10-03T15:41:04.872Z,99828.09
2022-10-03T15:43:33.453Z,99832.22
2022-10-03T15:46:02.751Z,99844.66
2022-10-03T15:48:31.103Z,99840.16
2022-10-03T15:50:58.822Z,99826.25
2022-10-03T15:53:42.181Z,99832.47
2022-10-03T15:56:19.083Z,99843.16
2022-10-03T15:58:48.375Z,99841.56
2022-10-03T16:01:21.222Z,99830.69
2022-10-03T16:03:52.359Z,99825.56
2022-10-03T16:06:21.728Z,99833.59
2022-10-03T16:09:20.721Z,99833.59
2022-10-03T16:11:56.069Z,99824.56
2022-10-03T16:14:31.571Z,99816.75
2022-10-03T16:19:31.507Z,99826.03
2022-10-03T16:22:16.346Z,99814.97
2022-10-03T16:24:52.681Z,99816.41
2022-10-03T16:27:21.062Z,99811.06
2022-10-03T16:29:53.169Z,99803.47
2022-10-03T16:32:24.614Z,99806.75
2022-10-03T16:34:51.839Z,99813.69
2022-10-03T16:37:20.479Z,99821.88
2022-10-03T16:39:55.257Z,99830.63
2022-10-03T16:42:28.873Z,99817.88
2022-10-03T16:44:58.048Z,99813.91
2022-10-03T16:47:37.726Z,99804.88
2022-10-03T16:50:27.064Z,99803.41
2022-10-03T16:52:57.442Z,99810.50
2022-10-03T16:55:28.668Z,99815.56
2022-10-03T16:58:01.119Z,99813.25
2022-10-03T17:00:36.013Z,99810.09
2022-10-03T17:03:06.666Z,99801.66
2022-10-03T17:05:42.197Z,99812.69
2022-10-03T17:08:36.728Z,99812.25
2022-10-03T17:10:58.815Z,99800.53
2022-10-03T17:13:32.660Z,99803.94
2022-10-03T17:16:18.052Z,99797.56
2022-10-03T17:19:01.208Z,99810.63
2022-10-03T17:21:28.960Z,99807.28
2022-10-03T17:24:04.572Z,99810.69
2022-10-03T17:26:35.396Z,99805.50
2022-10-03T17:29:17.702Z,99797.50
2022-10-03T17:31:52.863Z,99799.25
2022-10-03T17:34:21.960Z,99805.72
2022-10-03T17:36:51.425Z,99796.03
2022-10-03T17:39:34.748Z,99815.38
2022-10-03T17:42:13.396Z,99832.91
2022-10-03T17:44:47.674Z,99828.97
2022-10-03T17:47:26.773Z,99823.81
2022-10-03T17:50:12.934Z,99816.88
2022-10-03T17:52:40.104Z,99810.94
2022-10-03T17:55:07.889Z,99807.81
2022-10-03T17:57:38.517Z,99813.72
2022-10-03T18:00:16.490Z,99806.09
2022-10-03T18:03:05.833Z,99826.91
2022-10-03T18:05:43.176Z,99824.59
2022-10-03T18:08:19.957Z,99823.72
2022-10-03T18:10:49.345Z,99813.81
2022-10-03T18:13:28.297Z,99810.91
2022-10-03T18:16:14.736Z,99806.75
2022-10-03T18:18:44.671Z,99804.28
2022-10-03T18:21:18.563Z,99805.13
2022-10-03T18:23:55.456Z,99804.09
2022-10-03T18:26:30.977Z,99796.13
2022-10-03T18:29:13.486Z,99797.50
2022-10-03T18:31:45.217Z,99806.03
2022-10-03T18:34:20.318Z,99811.06
2022-10-03T18:36:48.237Z,99807.50
2022-10-03T18:39:16.586Z,99800.44
2022-10-03T18:41:45.091Z,99800.00
2022-10-03T18:44:16.151Z,99802.19
2022-10-03T18:46:45.210Z,99800.75
2022-10-03T18:49:33.524Z,99789.84
2022-10-03T18:52:19.250Z,99784.09
2022-10-03T18:54:54.831Z,99791.41
2022-10-03T18:57:39.335Z,99781.34
2022-10-03T19:00:18.262Z,99789.19
2022-10-03T19:02:51.073Z,99791.91
2022-10-03T19:05:22.504Z,99790.19
2022-10-03T19:07:52.468Z,99785.59
2022-10-03T19:10:27.451Z,99782.31
2022-10-03T19:13:14.126Z,99792.53
2022-10-03T19:15:42.693Z,99779.13
2022-10-03T19:18:21.601Z,99777.28
2022-10-03T19:20:53.618Z,99779.47
2022-10-03T19:23:29.853Z,99782.19
2022-10-03T19:25:59.287Z,99782.47
2022-10-03T19:28:29.269Z,99785.81
2022-10-03T19:30:58.392Z,99779.41
2022-10-03T19:33:26.594Z,99783.75
2022-10-03T19:35:55.754Z,99773.50
2022-10-03T19:38:31.740Z,99770.41
2022-10-03T19:40:59.042Z,99771.13
2022-10-03T19:43:36.049Z,99773.09
2022-10-03T19:46:16.264Z,99772.63
2022-10-03T19:48:47.491Z,99766.84
2022-10-03T19:51:21.613Z,99764.72
2022-10-03T19:53:51.674Z,99758.13
2022-10-03T19:56:18.834Z,99761.78
2022-10-03T19:58:58.184Z,99765.44
2022-10-03T20:01:25.194Z,99762.50
2022-10-03T20:03:54.415Z,99771.41
2022-10-03T20:06:24.769Z,99776.91
2022-10-03T20:08:51.126Z,99771.13
2022-10-03T20:11:23.175Z,99771.47
2022-10-03T20:13:49.876Z,99777.28
2022-10-03T20:16:21.411Z,99770.53
2022-10-03T20:18:50.101Z,99768.88
2022-10-03T20:21:22.092Z,99762.75
2022-10-03T20:23:49.416Z,99765.41
2022-10-03T20:26:22.001Z,99765.25
2022-10-03T20:29:02.661Z,99762.75
2022-10-03T20:31:30.274Z,99756.81
2022-10-03T20:33:59.377Z,99758.47
2022-10-03T20:36:31.094Z,99752.34
2022-10-03T20:39:03.438Z,99745.56
2022-10-03T20:41:35.650Z,99742.44
2022-10-03T20:44:02.127Z,99735.84
2022-10-03T20:46:37.855Z,99740.69
2022-10-03T20:49:25.133Z,99739.41
2022-10-03T20:51:54.429Z,99747.81
2022-10-03T20:54:22.201Z,99736.31
2022-10-03T20:56:51.607Z,99745.41
2022-10-03T20:59:19.827Z,99745.59
2022-10-03T21:01:47.452Z,99749.22
2022-10-03T21:04:13.858Z,99750.56
2022-10-03T21:06:52.390Z,99758.88
2022-10-03T21:09:20.781Z,99760.84
2022-10-03T21:11:53.785Z,99759.38
2022-10-03T21:14:24.633Z,99760.34
2022-10-03T21:16:52.242Z,99764.19
2022-10-03T21:19:23.238Z,99763.84
2022-10-03T21:21:55.638Z,99757.09
2022-10-03T21:24:23.120Z,99744.88
2022-10-03T21:26:55.203Z,99744.22
2022-10-03T21:29:24.672Z,99743.91
2022-10-03T21:31:57.437Z,99745.25
2022-10-03T21:34:29.678Z,99744.09
2022-10-03T21:37:05.263Z,99745.41
2022-10-03T21:39:43.073Z,99743.28
2022-10-03T21:42:24.801Z,99746.44
2022-10-03T21:44:51.165Z,99758.53
2022-10-03T21:47:36.946Z,99757.38
2022-10-03T21:50:06.573Z,99756.56
2022-10-03T21:52:50.771Z,99755.25
2022-10-03T21:55:50.825Z,99747.81
2022-10-03T21:58:18.891Z,99744.00
2022-10-03T22:00:52.622Z,99741.88
2022-10-03T22:03:22.856Z,99748.00
2022-10-03T22:05:52.083Z,99747.00
2022-10-03T22:08:23.522Z,99738.91
2022-10-03T22:11:02.741Z,99729.66
2022-10-03T22:13:33.138Z,99728.84
2022-10-03T22:16:22.393Z,99729.00
2022-10-03T22:18:55.045Z,99723.22
2022-10-03T22:21:25.744Z,99723.22
2022-10-03T22:23:58.470Z,99712.84
2022-10-03T22:26:37.631Z,99713.97
2022-10-03T22:29:09.785Z,99716.81
2022-10-03T22:31:44.629Z,99717.94
2022-10-03T22:34:17.276Z,99709.03
2022-10-03T22:36:44.625Z,99702.91
2022-10-03T22:39:12.401Z,99706.88
2022-10-03T22:41:40.790Z,99709.84
2022-10-03T22:44:08.580Z,99696.50
2022-10-03T22:46:36.816Z,99697.31
2022-10-03T22:49:12.493Z,99702.09
2022-10-03T22:51:40.887Z,99698.94
2022-10-03T22:54:10.980Z,99691.34
2022-10-03T22:56:54.549Z,99687.75
2022-10-03T22:59:23.974Z,99690.38
2022-10-03T23:01:51.735Z,99685.09
2022-10-03T23:04:38.406Z,99682.63
2022-10-03T23:07:07.813Z,99672.56
2022-10-03T23:09:43.472Z,99680.78
2022-10-03T23:12:11.100Z,99674.69
2022-10-03T23:14:40.916Z,99682.09
2022-10-03T23:17:26.095Z,99670.88
2022-10-03T23:19:55.522Z,99672.72
2022-10-03T23:22:24.691Z,99660.84
2022-10-03T23:24:56.285Z,99662.97
2022-10-03T23:27:34.584Z,99660.50
2022-10-03T23:30:14.791Z,99655.03
2022-10-03T23:33:01.415Z,99656.34
2022-10-03T23:35:30.648Z,99653.38
2022-10-03T23:37:57.763Z,99639.81
2022-10-03T23:40:32.981Z,99639.19
2022-10-03T23:43:04.759Z,99641.13
2022-10-03T23:45:33.628Z,99648.41
2022-10-03T23:48:06.440Z,99646.25
2022-10-03T23:50:45.259Z,99647.03
2022-10-03T23:53:33.514Z,99644.22
2022-10-03T23:56:02.217Z,99641.91
2022-10-03T23:58:30.292Z,99641.56
